European Causeway — C6RG7 — position and weather

sailwx.info

Track history (hours):
 
Tides and Currents Weather Stations Pressure Air Temp Water Temp Dewpoint Dewpoint Depression Visibility Wind Speed Wind Dir Waves Ship Positions

European Causeway

Operator: P & O Irish Sea

Last reported at 2016-Aug-24 04:32 UTC. Time now 2016-Aug-24 06:45 UTC.
Position N 55°01' W 005°06'.

Length 165 m; draft 5.5 m.

Type: Passenger vessel. MMSI: 311027000.

Date/timePositionNaut miles runAvg speedWind from/ knotsBaromVisibWave heightAir tempDewpointWater temp
2016-Aug-24 04:32N 55°01' W 005°06'1717.9
2016-Aug-24 03:33N 54°55' W 005°33'9 8.9
2016-Aug-24 02:32N 54°51' W 005°48'0 0.0
2016-Aug-24 01:31N 54°51' W 005°48'4 4.4
2016-Aug-24 00:34N 54°53' W 005°42'1717.0
2016-Aug-23 23:34N 55°00' W 005°15'8 7.4
2016-Aug-23 22:26N 54°58' W 005°01'0 0.0
2016-Aug-23 21:26N 54°58' W 005°01'6 5.7
2016-Aug-23 20:27N 55°02' W 005°08'1617.7
2016-Aug-23 19:33N 54°55' W 005°33'9 9.4
2016-Aug-23 18:33N 54°51' W 005°48'0 0.0
2016-Aug-23 17:33N 54°51' W 005°48'1414.1
2016-Aug-23 16:33N 54°57' W 005°27'1514.6
2016-Aug-23 15:34N 54°58' W 005°01'0 0.2
2016-Aug-23 14:26N 54°58' W 005°01'1112.4
2016-Aug-23 13:33N 54°58' W 005°20'1816.7
2016-Aug-23 12:30N 54°51' W 005°48'0 0.0
2016-Aug-23 11:33N 54°51' W 005°48'1313.1
2016-Aug-23 10:33N 54°57' W 005°28'1515.3
2016-Aug-23 09:33N 54°58' W 005°01'0 0.3
2016-Aug-23 08:33N 54°58' W 005°01'1111.0
2016-Aug-23 07:34N 54°58' W 005°20'1717.0
2016-Aug-23 06:32N 54°51' W 005°48'0 0.3
2016-Aug-23 05:29N 54°51' W 005°48'4 4.4
2016-Aug-23 04:32N 54°53' W 005°42'1717.9
2016-Aug-23 03:33N 55°01' W 005°14'8 8.2
2016-Aug-23 02:32N 54°58' W 005°01'0 0.0
2016-Aug-23 01:32N 54°58' W 005°01'5 4.9
2016-Aug-23 00:28N 55°02' W 005°07'1617.7
2016-Aug-22 23:34N 54°55' W 005°33'10 9.4
2016-Aug-22 22:32N 54°51' W 005°48'0 0.0
2016-Aug-22 21:32N 54°51' W 005°48'4 3.8
2016-Aug-22 20:33N 54°53' W 005°42'1817.7
2016-Aug-22 19:34N 55°01' W 005°15'9 6.8
2016-Aug-22 18:18N 54°58' W 005°01'0 0.0
2016-Aug-22 17:33N 54°58' W 005°01'1313.0
2016-Aug-22 16:33N 54°57' W 005°24'1514.8
2016-Aug-22 15:31N 54°51' W 005°48'0 0.0
2016-Aug-22 14:33N 54°51' W 005°48'1313.2
2016-Aug-22 13:33N 54°57' W 005°28'1514.8
2016-Aug-22 12:33N 54°59' W 005°02'1 1.1
2016-Aug-22 11:33N 54°58' W 005°01'1110.6
2016-Aug-22 10:33N 54°58' W 005°19'1817.5
2016-Aug-22 09:32N 54°51' W 005°48'0 0.1
2016-Aug-22 08:30N 54°51' W 005°48'1313.3
2016-Aug-22 07:33N 54°57' W 005°29'1514.8
2016-Aug-22 06:31N 54°59' W 005°03'1 1.5
2016-Aug-22 05:33N 54°58' W 005°01'5 5.4
2016-Aug-22 04:32N 55°02' W 005°08'1717.6
2016-Aug-22 03:33N 54°54' W 005°35'8 8.1
2016-Aug-22 02:33N 54°51' W 005°48'0 0.0
2016-Aug-22 01:33N 54°51' W 005°48'0 0.0
2016-Aug-22 00:33N 54°51' W 005°48'5 4.9
2016-Aug-21 23:31N 54°53' W 005°40'1617.1
2016-Aug-21 22:33N 55°01' W 005°15'8 5.8
2016-Aug-21 21:06N 54°58' W 005°01'6 9.2
2016-Aug-21 20:28N 55°02' W 005°09'1618.2
2016-Aug-21 19:34N 54°54' W 005°34'8 8.4
2016-Aug-21 18:33N 54°51' W 005°48'0 0.0
2016-Aug-21 17:27N 54°51' W 005°48'1516.6
2016-Aug-21 16:34N 54°59' W 005°27'1514.6
2016-Aug-21 15:33N 54°58' W 005°01'0 0.0
2016-Aug-21 14:31N 54°58' W 005°01'1111.5
2016-Aug-21 13:34N 54°58' W 005°20'1717.3
2016-Aug-21 12:33N 54°51' W 005°48'0 0.1
2016-Aug-21 11:31N 54°51' W 005°48'1212.8
2016-Aug-21 10:33N 54°57' W 005°29'1514.9
2016-Aug-21 09:33N 54°59' W 005°03'2 2.3
2016-Aug-21 08:33N 54°58' W 005°01'10 9.8
2016-Aug-21 07:33N 54°59' W 005°18'1918.1
2016-Aug-21 06:32N 54°51' W 005°48'0 0.1
2016-Aug-21 05:30N 54°51' W 005°48'0 0.0
2016-Aug-21 04:33N 54°51' W 005°48'0 0.0
2016-Aug-21 03:33N 54°51' W 005°48'0 0.0
2016-Aug-21 02:33N 54°51' W 005°48'0 0.0
2016-Aug-21 01:27N 54°51' W 005°48'0 0.0
2016-Aug-21 00:33N 54°51' W 005°48'0 0.0
2016-Aug-20 23:21N 54°51' W 005°48'0 0.0
2016-Aug-20 22:33N 54°51' W 005°48'0 0.0
2016-Aug-20 21:33N 54°51' W 005°48'2 1.7
2016-Aug-20 20:32N 54°52' W 005°46'1717.8
2016-Aug-20 19:33N 54°59' W 005°18'10 9.6
2016-Aug-20 18:30N 54°58' W 005°01'0 0.0
2016-Aug-20 17:34N 54°58' W 005°01'1110.8
2016-Aug-20 16:33N 54°58' W 005°20'1717.5
2016-Aug-20 15:33N 54°51' W 005°48'1 0.6
2016-Aug-20 14:33N 54°51' W 005°48'1313.1
2016-Aug-20 13:33N 54°57' W 005°28'1514.9
2016-Aug-20 12:33N 54°58' W 005°02'1 0.9
2016-Aug-20 11:33N 54°58' W 005°01'1010.2
2016-Aug-20 10:34N 54°59' W 005°19'1717.3
2016-Aug-20 09:33N 54°52' W 005°47'1 1.3
2016-Aug-20 08:33N 54°51' W 005°48'1212.2
2016-Aug-20 07:33N 54°57' W 005°29'1515.1
2016-Aug-20 06:33N 54°59' W 005°03'2 2.0
2016-Aug-20 05:31N 54°58' W 005°01'5 5.3
2016-Aug-20 04:32N 55°02' W 005°07'1717.3
2016-Aug-20 03:33N 54°55' W 005°34'9 8.1
2016-Aug-20 02:29N 54°51' W 005°48'0 0.0
2016-Aug-20 01:29N 54°51' W 005°48'5 4.8
2016-Aug-20 00:31N 54°53' W 005°41'1717.9
2016-Aug-19 23:33N 55°01' W 005°14'8 7.8
2016-Aug-19 22:32N 54°58' W 005°01'0 0.0
2016-Aug-19 21:26N 54°58' W 005°01'6 6.3
2016-Aug-19 20:27N 55°01' W 005°10'1618.0
2016-Aug-19 19:33N 54°54' W 005°35'8 7.7
2016-Aug-19 18:29N 54°51' W 005°48'0 0.0
2016-Aug-19 17:22N 54°51' W 005°48'1416.7
2016-Aug-19 16:31N 54°58' W 005°26'1414.5
2016-Aug-19 15:31N 54°58' W 005°01'0 0.0
2016-Aug-19 14:32N 54°58' W 005°01'1111.0
2016-Aug-19 13:34N 54°58' W 005°20'1817.9
2016-Aug-19 12:34N 54°51' W 005°48'0 0.1
2016-Aug-19 11:33N 54°51' W 005°48'1313.5
2016-Aug-19 10:34N 54°57' W 005°27'1515.0
2016-Aug-19 09:33N 54°58' W 005°01'0 0.2
2016-Aug-19 08:33N 54°58' W 005°01'10 9.9
2016-Aug-19 07:33N 54°59' W 005°18'1817.5
2016-Aug-19 06:30N 54°52' W 005°48'1 0.8
2016-Aug-19 05:29N 54°51' W 005°48'5 5.6
2016-Aug-19 04:33N 54°54' W 005°40'2019.6
2016-Aug-19 03:33N 55°02' W 005°09'6 5.9
2016-Aug-19 02:32N 54°58' W 005°01'0 0.0
2016-Aug-19 01:29N 54°58' W 005°01'5 5.2
2016-Aug-19 00:33N 55°02' W 005°06'1817.7
2016-Aug-18 23:33N 54°55' W 005°35'9 8.1
2016-Aug-18 22:29N 54°51' W 005°48'0 0.0
2016-Aug-18 21:32N 54°51' W 005°48'3 3.1
2016-Aug-18 20:33N 54°53' W 005°43'1716.8
2016-Aug-18 19:33N 55°00' W 005°18'10 9.1
2016-Aug-18 18:29N 54°58' W 005°01'0 0.0
2016-Aug-18 17:33N 54°58' W 005°01'1010.5
2016-Aug-18 16:34N 54°58' W 005°19'1817.4
2016-Aug-18 15:32N 54°51' W 005°48'0 0.3
2016-Aug-18 14:24N 54°51' W 005°48'1314.7
2016-Aug-18 13:33N 54°57' W 005°29'1514.1
2016-Aug-18 12:28N 54°59' W 005°03'1 1.5
2016-Aug-18 11:34N 54°58' W 005°01'1010.4
2016-Aug-18 10:33N 54°58' W 005°19'1817.5
2016-Aug-18 09:33N 54°52' W 005°47'1 1.0
2016-Aug-18 08:33N 54°51' W 005°48'1212.5
2016-Aug-18 07:34N 54°57' W 005°29'1514.7
2016-Aug-18 06:31N 54°59' W 005°02'1 1.4
2016-Aug-18 05:31N 54°58' W 005°01'5 5.1
2016-Aug-18 04:32N 55°02' W 005°07'1818.1
2016-Aug-18 03:33N 54°54' W 005°35'8 8.1
2016-Aug-18 02:31N 54°51' W 005°48'0 0.0
2016-Aug-18 01:31N 54°51' W 005°48'4 4.0
2016-Aug-18 00:33N 54°53' W 005°43'1918.8
2016-Aug-17 23:32N 55°01' W 005°12'7 6.1
2016-Aug-17 22:20N 54°58' W 005°01'0 0.0
2016-Aug-17 21:32N 54°58' W 005°01'6 5.6
2016-Aug-17 20:31N 55°02' W 005°08'1717.9
2016-Aug-17 19:33N 54°54' W 005°35'8 7.5
2016-Aug-17 18:30N 54°51' W 005°48'0 0.0
2016-Aug-17 17:33N 54°51' W 005°48'1514.4
2016-Aug-17 16:32N 54°58' W 005°25'1413.9
2016-Aug-17 15:33N 54°58' W 005°01'0 0.3
2016-Aug-17 14:33N 54°58' W 005°01'1211.8
2016-Aug-17 13:33N 54°58' W 005°21'1716.7
2016-Aug-17 12:33N 54°51' W 005°48'0 0.0
2016-Aug-17 11:33N 54°51' W 005°48'1413.7
2016-Aug-17 10:33N 54°57' W 005°27'1514.5
2016-Aug-17 09:33N 54°58' W 005°02'1 0.5
2016-Aug-17 08:34N 54°58' W 005°01'1110.7
2016-Aug-17 07:33N 54°58' W 005°20'1816.9
2016-Aug-17 06:31N 54°51' W 005°48'0 0.1
2016-Aug-17 05:33N 54°51' W 005°48'3 3.1
2016-Aug-17 04:33N 54°53' W 005°44'2019.9
2016-Aug-17 03:33N 55°01' W 005°12'7 7.5
2016-Aug-17 02:33N 54°58' W 005°01'0 0.0
2016-Aug-17 01:33N 54°58' W 005°01'6 5.5
2016-Aug-17 00:32N 55°02' W 005°08'1717.4
2016-Aug-16 23:33N 54°54' W 005°35'8 8.3
2016-Aug-16 22:33N 54°51' W 005°48'0 0.0
2016-Aug-16 21:33N 54°51' W 005°48'4 4.0
2016-Aug-16 20:33N 54°53' W 005°42'1817.9
2016-Aug-16 19:33N 55°01' W 005°14'8 8.1
2016-Aug-16 18:33N 54°58' W 005°01'0 0.0
2016-Aug-16 17:33N 54°58' W 005°01'1110.7
2016-Aug-16 16:32N 54°58' W 005°20'1818.0
2016-Aug-16 15:33N 54°51' W 005°48'0 0.1
2016-Aug-16 14:33N 54°51' W 005°48'1313.5
2016-Aug-16 13:33N 54°57' W 005°27'1514.7
2016-Aug-16 12:33N 54°58' W 005°02'1 1.0
2016-Aug-16 11:33N 54°58' W 005°01'1211.7
2016-Aug-16 10:34N 54°58' W 005°21'1716.9
2016-Aug-16 09:33N 54°51' W 005°48'0 0.2
2016-Aug-16 08:33N 54°51' W 005°48'1313.2
2016-Aug-16 07:33N 54°57' W 005°28'11 3.5
2016-Aug-16 04:29N 55°01' W 005°10'1617.9
2016-Aug-16 03:33N 54°54' W 005°36'7 7.4
2016-Aug-16 02:33N 54°51' W 005°48'0 0.0
2016-Aug-16 01:33N 54°51' W 005°48'4 3.9
2016-Aug-16 00:34N 54°53' W 005°42'1716.6
2016-Aug-15 23:33N 55°00' W 005°16'9 9.1
2016-Aug-15 22:33N 54°58' W 005°01'0 0.0
2016-Aug-15 21:22N 54°58' W 005°01'5 6.2
2016-Aug-15 20:33N 55°02' W 005°07'1818.1
2016-Aug-15 19:33N 54°54' W 005°36'8 7.9
2016-Aug-15 18:33N 54°51' W 005°48'0 0.0
2016-Aug-15 17:33N 54°51' W 005°48'1414.0
2016-Aug-15 16:33N 54°57' W 005°27'1414.5
2016-Aug-15 15:34N 54°58' W 005°01'0 0.3
2016-Aug-15 14:33N 54°58' W 005°01'1312.8
2016-Aug-15 13:34N 54°57' W 005°23'1615.5
2016-Aug-15 12:33N 54°51' W 005°48'0 0.0
2016-Aug-15 11:33N 54°51' W 005°48'1313.2
2016-Aug-15 10:33N 54°57' W 005°28'1514.8
2016-Aug-15 09:33N 54°59' W 005°02'1 1.1
2016-Aug-15 08:33N 54°58' W 005°01'1212.3
2016-Aug-15 07:33N 54°57' W 005°22'1615.9
2016-Aug-15 06:33N 54°51' W 005°48'4 2.1
2016-Aug-15 04:33N 54°53' W 005°42'2120.0
2016-Aug-15 03:31N 55°02' W 005°09'6 6.2
2016-Aug-15 02:33N 54°58' W 005°01'0 0.0
2016-Aug-15 01:32N 54°58' W 005°01'0 0.0
2016-Aug-15 00:33N 54°58' W 005°01'6 6.2
2016-Aug-14 23:33N 55°02' W 005°09'1918.7
2016-Aug-14 22:33N 54°53' W 005°39'6 5.8
2016-Aug-14 21:33N 54°51' W 005°48'4 3.8
2016-Aug-14 20:33N 54°53' W 005°42'1717.3
2016-Aug-14 19:33N 55°01' W 005°15'9 8.7
2016-Aug-14 18:33N 54°58' W 005°01'0 0.0
2016-Aug-14 17:33N 54°58' W 005°01'1211.6
2016-Aug-14 16:33N 54°57' W 005°21'1716.6
2016-Aug-14 15:33N 54°51' W 005°48'0 0.1
2016-Aug-14 14:33N 54°51' W 005°48'1313.7
2016-Aug-14 13:34N 54°57' W 005°27'1514.5
2016-Aug-14 12:34N 54°59' W 005°02'1 1.2
2016-Aug-14 11:33N 54°58' W 005°01'1111.1
2016-Aug-14 10:33N 54°58' W 005°20'1817.7
2016-Aug-14 09:33N 54°51' W 005°48'0 0.1
2016-Aug-14 08:33N 54°51' W 005°48'1313.0
2016-Aug-14 07:33N 54°57' W 005°28'1514.6
2016-Aug-14 06:30N 54°58' W 005°01'0 0.1
2016-Aug-14 04:33N 54°58' W 005°01'  
Track history (hours):
 
Tides and Currents Weather Stations Pressure Air Temp Water Temp Dewpoint Dewpoint Depression Visibility Wind Speed Wind Dir Waves Ship Positions

European Causeway

Operator: P & O Irish Sea

Last reported at 2016-Aug-24 04:32 UTC. Time now 2016-Aug-24 06:45 UTC.
Position N 55°01' W 005°06'.

Length 165 m; draft 5.5 m.

Type: Passenger vessel. MMSI: 311027000.

Date/timePositionNaut miles runAvg speedWind from/ knotsBaromVisibWave heightAir tempDewpointWater temp
2016-Aug-24 04:32N 55°01' W 005°06'1717.9
2016-Aug-24 03:33N 54°55' W 005°33'9 8.9
2016-Aug-24 02:32N 54°51' W 005°48'0 0.0
2016-Aug-24 01:31N 54°51' W 005°48'4 4.4
2016-Aug-24 00:34N 54°53' W 005°42'1717.0
2016-Aug-23 23:34N 55°00' W 005°15'8 7.4
2016-Aug-23 22:26N 54°58' W 005°01'0 0.0
2016-Aug-23 21:26N 54°58' W 005°01'6 5.7
2016-Aug-23 20:27N 55°02' W 005°08'1617.7
2016-Aug-23 19:33N 54°55' W 005°33'9 9.4
2016-Aug-23 18:33N 54°51' W 005°48'0 0.0
2016-Aug-23 17:33N 54°51' W 005°48'1414.1
2016-Aug-23 16:33N 54°57' W 005°27'1514.6
2016-Aug-23 15:34N 54°58' W 005°01'0 0.2
2016-Aug-23 14:26N 54°58' W 005°01'1112.4
2016-Aug-23 13:33N 54°58' W 005°20'1816.7
2016-Aug-23 12:30N 54°51' W 005°48'0 0.0
2016-Aug-23 11:33N 54°51' W 005°48'1313.1
2016-Aug-23 10:33N 54°57' W 005°28'1515.3
2016-Aug-23 09:33N 54°58' W 005°01'0 0.3
2016-Aug-23 08:33N 54°58' W 005°01'1111.0
2016-Aug-23 07:34N 54°58' W 005°20'1717.0
2016-Aug-23 06:32N 54°51' W 005°48'0 0.3
2016-Aug-23 05:29N 54°51' W 005°48'4 4.4
2016-Aug-23 04:32N 54°53' W 005°42'1717.9
2016-Aug-23 03:33N 55°01' W 005°14'8 8.2
2016-Aug-23 02:32N 54°58' W 005°01'0 0.0
2016-Aug-23 01:32N 54°58' W 005°01'5 4.9
2016-Aug-23 00:28N 55°02' W 005°07'1617.7
2016-Aug-22 23:34N 54°55' W 005°33'10 9.4
2016-Aug-22 22:32N 54°51' W 005°48'0 0.0
2016-Aug-22 21:32N 54°51' W 005°48'4 3.8
2016-Aug-22 20:33N 54°53' W 005°42'1817.7
2016-Aug-22 19:34N 55°01' W 005°15'9 6.8
2016-Aug-22 18:18N 54°58' W 005°01'0 0.0
2016-Aug-22 17:33N 54°58' W 005°01'1313.0
2016-Aug-22 16:33N 54°57' W 005°24'1514.8
2016-Aug-22 15:31N 54°51' W 005°48'0 0.0
2016-Aug-22 14:33N 54°51' W 005°48'1313.2
2016-Aug-22 13:33N 54°57' W 005°28'1514.8
2016-Aug-22 12:33N 54°59' W 005°02'1 1.1
2016-Aug-22 11:33N 54°58' W 005°01'1110.6
2016-Aug-22 10:33N 54°58' W 005°19'1817.5
2016-Aug-22 09:32N 54°51' W 005°48'0 0.1
2016-Aug-22 08:30N 54°51' W 005°48'1313.3
2016-Aug-22 07:33N 54°57' W 005°29'1514.8
2016-Aug-22 06:31N 54°59' W 005°03'1 1.5
2016-Aug-22 05:33N 54°58' W 005°01'5 5.4
2016-Aug-22 04:32N 55°02' W 005°08'1717.6
2016-Aug-22 03:33N 54°54' W 005°35'8 8.1
2016-Aug-22 02:33N 54°51' W 005°48'0 0.0
2016-Aug-22 01:33N 54°51' W 005°48'0 0.0
2016-Aug-22 00:33N 54°51' W 005°48'5 4.9
2016-Aug-21 23:31N 54°53' W 005°40'1617.1
2016-Aug-21 22:33N 55°01' W 005°15'8 5.8
2016-Aug-21 21:06N 54°58' W 005°01'6 9.2
2016-Aug-21 20:28N 55°02' W 005°09'1618.2
2016-Aug-21 19:34N 54°54' W 005°34'8 8.4
2016-Aug-21 18:33N 54°51' W 005°48'0 0.0
2016-Aug-21 17:27N 54°51' W 005°48'1516.6
2016-Aug-21 16:34N 54°59' W 005°27'1514.6
2016-Aug-21 15:33N 54°58' W 005°01'0 0.0
2016-Aug-21 14:31N 54°58' W 005°01'1111.5
2016-Aug-21 13:34N 54°58' W 005°20'1717.3
2016-Aug-21 12:33N 54°51' W 005°48'0 0.1
2016-Aug-21 11:31N 54°51' W 005°48'1212.8
2016-Aug-21 10:33N 54°57' W 005°29'1514.9
2016-Aug-21 09:33N 54°59' W 005°03'2 2.3
2016-Aug-21 08:33N 54°58' W 005°01'10 9.8
2016-Aug-21 07:33N 54°59' W 005°18'1918.1
2016-Aug-21 06:32N 54°51' W 005°48'0 0.1
2016-Aug-21 05:30N 54°51' W 005°48'0 0.0
2016-Aug-21 04:33N 54°51' W 005°48'0 0.0
2016-Aug-21 03:33N 54°51' W 005°48'0 0.0
2016-Aug-21 02:33N 54°51' W 005°48'0 0.0
2016-Aug-21 01:27N 54°51' W 005°48'0 0.0
2016-Aug-21 00:33N 54°51' W 005°48'0 0.0
2016-Aug-20 23:21N 54°51' W 005°48'0 0.0
2016-Aug-20 22:33N 54°51' W 005°48'0 0.0
2016-Aug-20 21:33N 54°51' W 005°48'2 1.7
2016-Aug-20 20:32N 54°52' W 005°46'1717.8
2016-Aug-20 19:33N 54°59' W 005°18'10 9.6
2016-Aug-20 18:30N 54°58' W 005°01'0 0.0
2016-Aug-20 17:34N 54°58' W 005°01'1110.8
2016-Aug-20 16:33N 54°58' W 005°20'1717.5
2016-Aug-20 15:33N 54°51' W 005°48'1 0.6
2016-Aug-20 14:33N 54°51' W 005°48'1313.1
2016-Aug-20 13:33N 54°57' W 005°28'1514.9
2016-Aug-20 12:33N 54°58' W 005°02'1 0.9
2016-Aug-20 11:33N 54°58' W 005°01'1010.2
2016-Aug-20 10:34N 54°59' W 005°19'1717.3
2016-Aug-20 09:33N 54°52' W 005°47'1 1.3
2016-Aug-20 08:33N 54°51' W 005°48'1212.2
2016-Aug-20 07:33N 54°57' W 005°29'1515.1
2016-Aug-20 06:33N 54°59' W 005°03'2 2.0
2016-Aug-20 05:31N 54°58' W 005°01'5 5.3
2016-Aug-20 04:32N 55°02' W 005°07'1717.3
2016-Aug-20 03:33N 54°55' W 005°34'9 8.1
2016-Aug-20 02:29N 54°51' W 005°48'0 0.0
2016-Aug-20 01:29N 54°51' W 005°48'5 4.8
2016-Aug-20 00:31N 54°53' W 005°41'1717.9
2016-Aug-19 23:33N 55°01' W 005°14'8 7.8
2016-Aug-19 22:32N 54°58' W 005°01'0 0.0
2016-Aug-19 21:26N 54°58' W 005°01'6 6.3
2016-Aug-19 20:27N 55°01' W 005°10'1618.0
2016-Aug-19 19:33N 54°54' W 005°35'8 7.7
2016-Aug-19 18:29N 54°51' W 005°48'0 0.0
2016-Aug-19 17:22N 54°51' W 005°48'1416.7
2016-Aug-19 16:31N 54°58' W 005°26'1414.5
2016-Aug-19 15:31N 54°58' W 005°01'0 0.0
2016-Aug-19 14:32N 54°58' W 005°01'1111.0
2016-Aug-19 13:34N 54°58' W 005°20'1817.9
2016-Aug-19 12:34N 54°51' W 005°48'0 0.1
2016-Aug-19 11:33N 54°51' W 005°48'1313.5
2016-Aug-19 10:34N 54°57' W 005°27'1515.0
2016-Aug-19 09:33N 54°58' W 005°01'0 0.2
2016-Aug-19 08:33N 54°58' W 005°01'10 9.9
2016-Aug-19 07:33N 54°59' W 005°18'1817.5
2016-Aug-19 06:30N 54°52' W 005°48'1 0.8
2016-Aug-19 05:29N 54°51' W 005°48'5 5.6
2016-Aug-19 04:33N 54°54' W 005°40'2019.6
2016-Aug-19 03:33N 55°02' W 005°09'6 5.9
2016-Aug-19 02:32N 54°58' W 005°01'0 0.0
2016-Aug-19 01:29N 54°58' W 005°01'5 5.2
2016-Aug-19 00:33N 55°02' W 005°06'1817.7
2016-Aug-18 23:33N 54°55' W 005°35'9 8.1
2016-Aug-18 22:29N 54°51' W 005°48'0 0.0
2016-Aug-18 21:32N 54°51' W 005°48'3 3.1
2016-Aug-18 20:33N 54°53' W 005°43'1716.8
2016-Aug-18 19:33N 55°00' W 005°18'10 9.1
2016-Aug-18 18:29N 54°58' W 005°01'0 0.0
2016-Aug-18 17:33N 54°58' W 005°01'1010.5
2016-Aug-18 16:34N 54°58' W 005°19'1817.4
2016-Aug-18 15:32N 54°51' W 005°48'0 0.3
2016-Aug-18 14:24N 54°51' W 005°48'1314.7
2016-Aug-18 13:33N 54°57' W 005°29'1514.1
2016-Aug-18 12:28N 54°59' W 005°03'1 1.5
2016-Aug-18 11:34N 54°58' W 005°01'1010.4
2016-Aug-18 10:33N 54°58' W 005°19'1817.5
2016-Aug-18 09:33N 54°52' W 005°47'1 1.0
2016-Aug-18 08:33N 54°51' W 005°48'1212.5
2016-Aug-18 07:34N 54°57' W 005°29'1514.7
2016-Aug-18 06:31N 54°59' W 005°02'1 1.4
2016-Aug-18 05:31N 54°58' W 005°01'5 5.1
2016-Aug-18 04:32N 55°02' W 005°07'1818.1
2016-Aug-18 03:33N 54°54' W 005°35'8 8.1
2016-Aug-18 02:31N 54°51' W 005°48'0 0.0
2016-Aug-18 01:31N 54°51' W 005°48'4 4.0
2016-Aug-18 00:33N 54°53' W 005°43'1918.8
2016-Aug-17 23:32N 55°01' W 005°12'7 6.1
2016-Aug-17 22:20N 54°58' W 005°01'0 0.0
2016-Aug-17 21:32N 54°58' W 005°01'6 5.6
2016-Aug-17 20:31N 55°02' W 005°08'1717.9
2016-Aug-17 19:33N 54°54' W 005°35'8 7.5
2016-Aug-17 18:30N 54°51' W 005°48'0 0.0
2016-Aug-17 17:33N 54°51' W 005°48'1514.4
2016-Aug-17 16:32N 54°58' W 005°25'1413.9
2016-Aug-17 15:33N 54°58' W 005°01'0 0.3
2016-Aug-17 14:33N 54°58' W 005°01'1211.8
2016-Aug-17 13:33N 54°58' W 005°21'1716.7
2016-Aug-17 12:33N 54°51' W 005°48'0 0.0
2016-Aug-17 11:33N 54°51' W 005°48'1413.7
2016-Aug-17 10:33N 54°57' W 005°27'1514.5
2016-Aug-17 09:33N 54°58' W 005°02'1 0.5
2016-Aug-17 08:34N 54°58' W 005°01'1110.7
2016-Aug-17 07:33N 54°58' W 005°20'1816.9
2016-Aug-17 06:31N 54°51' W 005°48'0 0.1
2016-Aug-17 05:33N 54°51' W 005°48'3 3.1
2016-Aug-17 04:33N 54°53' W 005°44'2019.9
2016-Aug-17 03:33N 55°01' W 005°12'7 7.5
2016-Aug-17 02:33N 54°58' W 005°01'0 0.0
2016-Aug-17 01:33N 54°58' W 005°01'6 5.5
2016-Aug-17 00:32N 55°02' W 005°08'1717.4
2016-Aug-16 23:33N 54°54' W 005°35'8 8.3
2016-Aug-16 22:33N 54°51' W 005°48'0 0.0
2016-Aug-16 21:33N 54°51' W 005°48'4 4.0
2016-Aug-16 20:33N 54°53' W 005°42'1817.9
2016-Aug-16 19:33N 55°01' W 005°14'8 8.1
2016-Aug-16 18:33N 54°58' W 005°01'0 0.0
2016-Aug-16 17:33N 54°58' W 005°01'1110.7
2016-Aug-16 16:32N 54°58' W 005°20'1818.0
2016-Aug-16 15:33N 54°51' W 005°48'0 0.1
2016-Aug-16 14:33N 54°51' W 005°48'1313.5
2016-Aug-16 13:33N 54°57' W 005°27'1514.7
2016-Aug-16 12:33N 54°58' W 005°02'1 1.0
2016-Aug-16 11:33N 54°58' W 005°01'1211.7
2016-Aug-16 10:34N 54°58' W 005°21'1716.9
2016-Aug-16 09:33N 54°51' W 005°48'0 0.2
2016-Aug-16 08:33N 54°51' W 005°48'1313.2
2016-Aug-16 07:33N 54°57' W 005°28'11 3.5
2016-Aug-16 04:29N 55°01' W 005°10'1617.9
2016-Aug-16 03:33N 54°54' W 005°36'7 7.4
2016-Aug-16 02:33N 54°51' W 005°48'0 0.0
2016-Aug-16 01:33N 54°51' W 005°48'4 3.9
2016-Aug-16 00:34N 54°53' W 005°42'1716.6
2016-Aug-15 23:33N 55°00' W 005°16'9 9.1
2016-Aug-15 22:33N 54°58' W 005°01'0 0.0
2016-Aug-15 21:22N 54°58' W 005°01'5 6.2
2016-Aug-15 20:33N 55°02' W 005°07'1818.1
2016-Aug-15 19:33N 54°54' W 005°36'8 7.9
2016-Aug-15 18:33N 54°51' W 005°48'0 0.0
2016-Aug-15 17:33N 54°51' W 005°48'1414.0
2016-Aug-15 16:33N 54°57' W 005°27'1414.5
2016-Aug-15 15:34N 54°58' W 005°01'0 0.3
2016-Aug-15 14:33N 54°58' W 005°01'1312.8
2016-Aug-15 13:34N 54°57' W 005°23'1615.5
2016-Aug-15 12:33N 54°51' W 005°48'0 0.0
2016-Aug-15 11:33N 54°51' W 005°48'1313.2
2016-Aug-15 10:33N 54°57' W 005°28'1514.8
2016-Aug-15 09:33N 54°59' W 005°02'1 1.1
2016-Aug-15 08:33N 54°58' W 005°01'1212.3
2016-Aug-15 07:33N 54°57' W 005°22'1615.9
2016-Aug-15 06:33N 54°51' W 005°48'4 2.1
2016-Aug-15 04:33N 54°53' W 005°42'2120.0
2016-Aug-15 03:31N 55°02' W 005°09'6 6.2
2016-Aug-15 02:33N 54°58' W 005°01'0 0.0
2016-Aug-15 01:32N 54°58' W 005°01'0 0.0
2016-Aug-15 00:33N 54°58' W 005°01'6 6.2
2016-Aug-14 23:33N 55°02' W 005°09'1918.7
2016-Aug-14 22:33N 54°53' W 005°39'6 5.8
2016-Aug-14 21:33N 54°51' W 005°48'4 3.8
2016-Aug-14 20:33N 54°53' W 005°42'1717.3
2016-Aug-14 19:33N 55°01' W 005°15'9 8.7
2016-Aug-14 18:33N 54°58' W 005°01'0 0.0
2016-Aug-14 17:33N 54°58' W 005°01'1211.6
2016-Aug-14 16:33N 54°57' W 005°21'1716.6
2016-Aug-14 15:33N 54°51' W 005°48'0 0.1
2016-Aug-14 14:33N 54°51' W 005°48'1313.7
2016-Aug-14 13:34N 54°57' W 005°27'1514.5
2016-Aug-14 12:34N 54°59' W 005°02'1 1.2
2016-Aug-14 11:33N 54°58' W 005°01'1111.1
2016-Aug-14 10:33N 54°58' W 005°20'1817.7
2016-Aug-14 09:33N 54°51' W 005°48'0 0.1
2016-Aug-14 08:33N 54°51' W 005°48'1313.0
2016-Aug-14 07:33N 54°57' W 005°28'1514.6
2016-Aug-14 06:30N 54°58' W 005°01'0 0.1
2016-Aug-14 04:33N 54°58' W 005°01'  

Dump ship's entire track history